Time;durP1;ratioP1;P1;durP2;ratioP2;P2;SDS_P1;SDS_P2;PMS_P1;PMS_P2;Temp;Humidity;BMP_temperature;BMP_pressure;BME280_temperature;BME280_humidity;BME280_pressure;Samples;Min_cycle;Max_cycle;Signal;HPM_P1;HPM_P2
2022/12/22 03:28:11;;;;;;;46.42;17.17;;;8.30;99.90;;;;;;5058462;28;20211;-67
2022/12/22 03:30:37;;;;;;;47.17;16.27;;;8.40;99.90;;;;;;5058472;28;20219;-66
2022/12/22 03:33:03;;;;;;;51.83;16.27;;;8.30;99.90;;;;;;5047857;28;20307;-66
2022/12/22 03:35:29;;;;;;;51.53;16.67;;;8.30;99.90;;;;;;5063640;28;20302;-67
2022/12/22 03:37:54;;;;;;;53.10;16.57;;;8.30;99.90;;;;;;5067240;28;20041;-67
2022/12/22 03:40:20;;;;;;;51.03;16.73;;;8.30;99.90;;;;;;5062490;28;20032;-66
2022/12/22 03:48:14;;;;;;;55.83;17.13;;;8.30;99.90;;;;;;5062898;28;20461;-66
2022/12/22 03:50:40;;;;;;;50.20;17.00;;;8.30;99.90;;;;;;5066199;28;20032;-66
2022/12/22 03:53:05;;;;;;;42.50;15.50;;;8.30;99.90;;;;;;5049017;28;20097;-66
2022/12/22 03:55:31;;;;;;;44.57;16.97;;;8.20;99.90;;;;;;5064311;28;20486;-66
2022/12/22 03:57:56;;;;;;;47.03;16.17;;;8.30;99.90;;;;;;5041404;28;20036;-66
2022/12/22 04:00:22;;;;;;;45.93;15.03;;;8.20;99.90;;;;;;5065088;28;20135;-66
2022/12/22 04:02:48;;;;;;;42.67;14.27;;;8.20;99.90;;;;;;5065926;28;20049;-66
2022/12/22 04:05:14;;;;;;;37.97;14.10;;;8.20;99.90;;;;;;5027663;28;20059;-66
2022/12/22 04:07:39;;;;;;;47.80;15.87;;;8.20;99.90;;;;;;5048847;28;20051;-66
2022/12/22 04:12:53;;;;;;;45.85;15.52;;;8.20;99.90;;;;;;5045075;28;20048;-66
2022/12/22 04:15:22;;;;;;;50.30;15.20;;;8.20;99.90;;;;;;5065227;28;20098;-66
2022/12/22 04:17:49;;;;;;;43.80;16.63;;;8.20;99.90;;;;;;5047715;28;20049;-66
2022/12/22 04:20:14;;;;;;;51.92;16.52;;;8.20;99.90;;;;;;5062920;28;20553;-66
2022/12/22 04:22:40;;;;;;;43.00;16.40;;;8.20;99.90;;;;;;5059603;28;20037;-69
2022/12/22 04:25:06;;;;;;;43.30;15.90;;;8.20;99.90;;;;;;5063118;28;20045;-68
2022/12/22 04:27:32;;;;;;;56.40;16.00;;;8.20;99.90;;;;;;5063733;28;20032;-67
2022/12/22 04:29:57;;;;;;;45.90;14.73;;;8.20;99.90;;;;;;5043696;28;20048;-66
2022/12/22 04:32:23;;;;;;;51.07;16.13;;;8.20;99.90;;;;;;5045496;28;20040;-66
2022/12/22 04:34:48;;;;;;;44.40;15.03;;;8.20;99.90;;;;;;5046832;28;20068;-66
2022/12/22 04:37:14;;;;;;;38.30;13.67;;;8.20;99.90;;;;;;5061090;28;20094;-66
2022/12/22 04:39:40;;;;;;;33.43;12.43;;;8.20;99.90;;;;;;5064950;28;20060;-67
2022/12/22 04:42:05;;;;;;;36.40;13.70;;;8.10;99.90;;;;;;5065798;28;20036;-66
2022/12/22 04:44:31;;;;;;;37.80;13.50;;;8.10;99.90;;;;;;5064114;28;20041;-66
2022/12/22 04:46:57;;;;;;;44.70;14.83;;;8.10;99.90;;;;;;5044373;28;20070;-66
2022/12/22 04:49:22;;;;;;;38.67;13.47;;;8.10;99.90;;;;;;5047574;28;20441;-67
2022/12/22 04:51:48;;;;;;;39.97;13.90;;;8.10;99.90;;;;;;5065321;28;20044;-66
2022/12/22 04:54:13;;;;;;;40.90;13.13;;;8.10;99.90;;;;;;5067160;28;20509;-67
2022/12/22 04:56:39;;;;;;;35.87;12.73;;;8.10;99.90;;;;;;5042841;28;20044;-66
2022/12/22 04:59:05;;;;;;;41.87;14.03;;;8.10;99.90;;;;;;5064468;28;20036;-67
2022/12/22 05:01:30;;;;;;;44.37;13.67;;;8.10;99.90;;;;;;5060564;28;20058;-66
2022/12/22 05:03:56;;;;;;;37.43;14.03;;;8.10;99.90;;;;;;5048023;28;20128;-67
2022/12/22 05:06:22;;;;;;;48.20;14.70;;;8.10;99.90;;;;;;5059426;28;20551;-68
2022/12/22 05:08:47;;;;;;;43.10;13.10;;;8.10;99.90;;;;;;5066519;28;20041;-67
2022/12/22 05:11:13;;;;;;;36.33;13.93;;;8.10;99.90;;;;;;5047090;28;20465;-67
2022/12/22 05:13:38;;;;;;;39.83;13.67;;;8.10;99.90;;;;;;5065825;28;20052;-67
2022/12/22 05:16:05;;;;;;;33.40;12.53;;;8.10;99.90;;;;;;5035093;22;20139;-69
2022/12/22 05:18:32;;;;;;;41.83;14.77;;;8.10;99.90;;;;;;5006922;28;20053;-69
2022/12/22 05:21:00;;;;;;;39.53;14.48;;;8.10;99.90;;;;;;5005387;28;20052;-69
2022/12/22 05:23:26;;;;;;;42.75;15.65;;;8.10;99.90;;;;;;5005778;28;20052;-69
2022/12/22 05:25:52;;;;;;;44.20;14.07;;;8.10;99.90;;;;;;5003220;28;20042;-70
2022/12/22 05:28:17;;;;;;;40.97;14.07;;;8.10;99.90;;;;;;5008781;28;20046;-69
2022/12/22 05:30:43;;;;;;;36.43;13.33;;;8.10;99.90;;;;;;5004373;28;20085;-71
2022/12/22 05:33:09;;;;;;;35.47;12.67;;;8.10;99.90;;;;;;5005845;28;20100;-69
2022/12/22 05:35:34;;;;;;;31.50;13.07;;;8.00;99.90;;;;;;5005279;28;20393;-69
2022/12/22 05:38:00;;;;;;;34.47;12.93;;;8.10;99.90;;;;;;5006780;28;20046;-69
2022/12/22 05:40:28;;;;;;;41.90;13.77;;;8.10;99.90;;;;;;5003028;28;20033;-70
2022/12/22 05:42:54;;;;;;;38.72;13.57;;;8.00;99.90;;;;;;4994853;28;20110;-72
2022/12/22 05:45:20;;;;;;;38.90;13.90;;;8.10;99.90;;;;;;4999675;28;20108;-70
2022/12/22 05:47:51;;;;;;;42.30;15.35;;;8.00;99.90;;;;;;5005696;28;20042;-70
2022/12/22 05:50:22;;;;;;;39.33;13.57;;;8.00;99.90;;;;;;5001692;28;20077;-70
2022/12/22 05:52:49;;;;;;;42.53;13.65;;;8.00;99.90;;;;;;5007166;28;20100;-70
2022/12/22 05:55:15;;;;;;;40.80;13.50;;;8.00;99.90;;;;;;5002926;28;20042;-70
2022/12/22 05:57:42;;;;;;;39.58;14.30;;;8.00;99.90;;;;;;5004585;28;20050;-70
2022/12/22 06:00:11;;;;;;;36.83;13.18;;;7.90;99.90;;;;;;5010466;28;20049;-70
2022/12/22 06:02:37;;;;;;;39.95;13.55;;;7.90;99.90;;;;;;5006025;28;20042;-70
2022/12/22 06:05:03;;;;;;;39.50;11.93;;;7.90;99.90;;;;;;5006545;28;20042;-70
2022/12/22 06:07:29;;;;;;;40.42;12.60;;;7.90;99.90;;;;;;5003369;28;20075;-70
2022/12/22 06:09:55;;;;;;;29.40;11.23;;;7.90;99.90;;;;;;5007058;28;20069;-71
2022/12/22 06:12:21;;;;;;;31.73;9.17;;;7.90;99.90;;;;;;5007021;28;20045;-70
2022/12/22 06:14:46;;;;;;;34.27;8.80;;;7.90;99.90;;;;;;5007565;28;20045;-70
2022/12/22 06:17:12;;;;;;;26.65;9.50;;;7.90;99.90;;;;;;5002539;28;20078;-70
2022/12/22 06:19:38;;;;;;;28.43;7.67;;;7.80;99.90;;;;;;5002588;28;20082;-70
2022/12/22 06:22:03;;;;;;;31.23;7.77;;;7.80;99.90;;;;;;5001705;28;20126;-74
2022/12/22 06:24:29;;;;;;;24.27;6.57;;;7.80;99.90;;;;;;5000457;28;20049;-76
2022/12/22 06:26:55;;;;;;;23.33;6.70;;;7.80;99.90;;;;;;4999559;28;20092;-72
2022/12/22 06:29:21;;;;;;;26.05;6.55;;;7.80;99.90;;;;;;5001416;28;20037;-72
2022/12/22 06:31:46;;;;;;;31.83;8.30;;;7.70;99.90;;;;;;5003652;28;20402;-71
2022/12/22 06:34:12;;;;;;;19.98;6.75;;;7.70;99.90;;;;;;5004819;28;20041;-72
2022/12/22 06:36:38;;;;;;;30.50;7.53;;;7.70;99.90;;;;;;5003105;28;20050;-74
2022/12/22 06:39:07;;;;;;;22.60;6.85;;;7.70;99.90;;;;;;5005692;28;20049;-74
2022/12/22 06:44:19;;;;;;;22.30;7.20;;;7.60;99.90;;;;;;4994904;28;20084;-72
2022/12/22 06:46:45;;;;;;;24.83;8.30;;;7.60;99.90;;;;;;5005385;28;20081;-73
2022/12/22 06:49:11;;;;;;;24.53;7.33;;;7.60;99.90;;;;;;5012586;28;20488;-71
2022/12/22 06:51:36;;;;;;;30.77;8.88;;;7.50;99.90;;;;;;5006760;28;20034;-74
2022/12/22 06:54:02;;;;;;;26.93;7.63;;;7.50;99.90;;;;;;5006229;28;20042;-75
2022/12/22 06:56:28;;;;;;;29.02;7.50;;;7.40;99.90;;;;;;5009233;28;20073;-75
2022/12/22 06:58:54;;;;;;;19.90;6.50;;;7.50;99.90;;;;;;5009771;28;20109;-73
2022/12/22 07:01:19;;;;;;;18.83;6.67;;;7.40;99.90;;;;;;5008484;28;20034;-76
2022/12/22 07:03:45;;;;;;;16.47;5.97;;;7.40;99.90;;;;;;5009820;28;20457;-77
2022/12/22 07:06:11;;;;;;;25.50;6.90;;;7.30;99.90;;;;;;5009200;28;20042;-77
2022/12/22 07:08:37;;;;;;;21.48;7.78;;;7.30;99.90;;;;;;4993170;28;20042;-74
2022/12/22 07:11:02;;;;;;;27.37;7.23;;;7.30;99.90;;;;;;5008939;28;20046;-72
2022/12/22 07:13:33;;;;;;;29.80;6.57;;;7.30;99.90;;;;;;5018881;28;20046;-75
2022/12/22 07:16:04;;;;;;;24.95;5.82;;;7.30;99.90;;;;;;5004061;28;20483;-72
2022/12/22 07:18:35;;;;;;;17.02;4.68;;;7.20;99.90;;;;;;5008823;28;20064;-72
2022/12/22 07:21:06;;;;;;;16.02;4.70;;;7.20;99.90;;;;;;5006772;28;20076;-71
2022/12/22 07:23:35;;;;;;;18.33;4.45;;;7.10;99.90;;;;;;5000408;28;20038;-75
2022/12/22 07:26:06;;;;;;;24.30;5.47;;;7.10;99.90;;;;;;5007196;28;20046;-74
2022/12/22 07:28:36;;;;;;;16.15;5.10;;;7.10;99.90;;;;;;5009875;28;20046;-77
2022/12/22 07:31:03;;;;;;;17.15;5.20;;;7.00;99.90;;;;;;5000183;28;20053;-70
2022/12/22 07:33:29;;;;;;;19.95;4.88;;;7.00;99.90;;;;;;5010766;28;20125;-69
2022/12/22 07:36:13;;;;;;;25.13;5.35;;;7.00;99.90;;;;;;5010760;28;20154;-69
2022/12/22 07:38:42;;;;;;;22.85;4.68;;;7.00;99.90;;;;;;4986435;28;20046;-70
2022/12/22 07:44:02;;;;;;;16.80;4.70;;;6.80;99.90;;;;;;4973042;28;20045;-69
2022/12/22 07:46:31;;;;;;;16.00;5.32;;;6.70;99.90;;;;;;5003687;28;20113;-69
2022/12/22 07:51:42;;;;;;;12.93;4.63;;;6.60;99.90;;;;;;5008331;28;20038;-77
2022/12/22 07:54:10;;;;;;;22.27;5.18;;;6.50;99.90;;;;;;5002972;28;20542;-70
2022/12/22 07:56:36;;;;;;;14.25;5.00;;;6.50;99.90;;;;;;5006699;28;20559;-70
2022/12/22 07:59:04;;;;;;;19.90;5.75;;;6.50;99.90;;;;;;5007340;28;20034;-70
2022/12/22 08:01:30;;;;;;;20.65;4.45;;;6.50;99.90;;;;;;5005343;28;20126;-70
2022/12/22 08:03:57;;;;;;;18.87;3.80;;;6.50;99.90;;;;;;4990599;28;20133;-70
2022/12/22 08:06:23;;;;;;;27.98;4.05;;;6.40;99.90;;;;;;5003730;28;20050;-70
2022/12/22 08:08:48;;;;;;;32.45;3.75;;;6.30;99.90;;;;;;5008540;28;20172;-70
2022/12/22 08:11:14;;;;;;;17.93;4.47;;;6.30;99.90;;;;;;5004252;28;20081;-70
2022/12/22 08:13:42;;;;;;;26.23;4.60;;;6.30;99.90;;;;;;5009951;28;20296;-70
2022/12/22 08:16:10;;;;;;;12.05;3.92;;;6.20;99.90;;;;;;5006941;28;20045;-70
2022/12/22 08:18:36;;;;;;;22.65;5.10;;;6.20;99.90;;;;;;5007187;28;20423;-71
2022/12/22 08:21:06;;;;;;;17.48;4.50;;;6.30;99.90;;;;;;4999592;28;20041;-70
2022/12/22 08:23:31;;;;;;;19.73;3.85;;;6.20;99.90;;;;;;4987402;28;20496;-70
2022/12/22 08:26:26;;;;;;;14.43;3.67;;;6.20;99.90;;;;;;5002868;28;20111;-70
2022/12/22 08:29:04;;;;;;;31.30;3.92;;;6.20;99.90;;;;;;4989979;28;20308;-70
2022/12/22 08:31:31;;;;;;;23.45;3.72;;;6.20;99.90;;;;;;5002027;28;20048;-69
2022/12/22 08:34:04;;;;;;;14.30;4.07;;;6.20;99.90;;;;;;4991196;28;20042;-69
2022/12/22 08:36:35;;;;;;;13.77;3.42;;;6.20;99.90;;;;;;5003488;28;20042;-70
2022/12/22 08:39:01;;;;;;;12.07;3.33;;;6.20;99.90;;;;;;5003765;28;20125;-69
2022/12/22 08:44:12;;;;;;;10.00;3.40;;;6.20;99.90;;;;;;5004396;28;20251;-69
2022/12/22 08:46:38;;;;;;;11.30;3.30;;;6.20;99.90;;;;;;5003974;28;20538;-69
2022/12/22 08:49:03;;;;;;;20.07;4.33;;;6.20;99.90;;;;;;5008488;28;20472;-69
2022/12/22 08:51:29;;;;;;;15.30;4.17;;;6.20;99.90;;;;;;5007587;28;20093;-69
2022/12/22 08:53:55;;;;;;;10.27;3.80;;;6.30;99.90;;;;;;5006583;28;20044;-69
2022/12/22 08:56:20;;;;;;;15.57;4.03;;;6.30;99.90;;;;;;5000484;28;20045;-69
2022/12/22 08:58:46;;;;;;;13.45;3.35;;;6.30;99.90;;;;;;5000026;28;20511;-69
2022/12/22 09:01:20;;;;;;;13.25;3.03;;;6.30;99.90;;;;;;4990171;28;20922;-69
2022/12/22 09:03:53;;;;;;;9.93;3.05;;;6.30;99.90;;;;;;5006588;28;20377;-69
2022/12/22 09:06:20;;;;;;;9.85;2.95;;;6.30;99.90;;;;;;5004263;28;20584;-69
2022/12/22 09:08:47;;;;;;;15.48;3.75;;;6.40;99.90;;;;;;4995068;28;20037;-71
2022/12/22 09:11:13;;;;;;;;;;;6.40;99.90;;;;;;5009108;28;20056;-70
2022/12/22 09:13:39;;;;;;;14.27;3.28;;;6.40;99.90;;;;;;5007329;28;20000;-71
2022/12/22 09:16:07;;;;;;;8.43;3.67;;;6.40;99.90;;;;;;5010690;28;20530;-71
2022/12/22 09:18:36;;;;;;;11.02;2.60;;;6.40;99.90;;;;;;5008291;28;20117;-70
2022/12/22 09:21:01;;;;;;;13.35;3.50;;;6.40;99.90;;;;;;5004970;28;20042;-71
2022/12/22 09:23:30;;;;;;;8.93;3.87;;;6.40;99.90;;;;;;5006738;28;20045;-70
2022/12/22 09:25:55;;;;;;;11.10;3.58;;;6.30;99.90;;;;;;4999908;28;20053;-71
2022/12/22 09:28:21;;;;;;;9.73;2.70;;;6.40;99.90;;;;;;5005347;28;20053;-70
2022/12/22 09:30:50;;;;;;;22.13;3.67;;;6.40;99.90;;;;;;5005385;28;20105;-70
2022/12/22 09:33:17;;;;;;;6.68;3.10;;;6.40;99.90;;;;;;5006333;28;20475;-70
2022/12/22 09:35:43;;;;;;;8.70;3.17;;;6.50;99.90;;;;;;5002980;28;20077;-70
2022/12/22 09:38:08;;;;;;;11.02;3.30;;;6.50;99.90;;;;;;5004224;28;20073;-70
2022/12/22 09:40:34;;;;;;;8.10;3.00;;;6.50;99.90;;;;;;5008982;28;20088;-70
2022/12/22 09:43:05;;;;;;;11.73;3.22;;;6.50;99.90;;;;;;5005094;28;20038;-71
2022/12/22 09:45:32;;;;;;;12.98;3.55;;;6.50;99.90;;;;;;5007738;28;20130;-70
2022/12/22 09:48:00;;;;;;;17.67;3.75;;;6.60;99.90;;;;;;5006729;28;20082;-70
2022/12/22 09:50:26;;;;;;;10.73;3.92;;;6.60;99.90;;;;;;5006517;28;20698;-70
2022/12/22 09:52:56;;;;;;;9.40;3.85;;;6.70;99.90;;;;;;5003601;28;20121;-70
2022/12/22 09:55:25;;;;;;;11.60;3.83;;;6.70;99.90;;;;;;5003966;28;20100;-71
2022/12/22 09:57:54;;;;;;;10.75;4.03;;;6.80;99.90;;;;;;5001380;28;20387;-69
2022/12/22 10:00:27;;;;;;;8.52;3.42;;;6.90;99.90;;;;;;5005357;28;20073;-70
2022/12/22 10:03:33;;;;;;;11.02;3.95;;;6.90;99.90;;;;;;4989177;28;20121;-69
2022/12/22 10:06:19;;;;;;;7.90;4.07;;;7.00;99.90;;;;;;4951232;28;20052;-72
2022/12/22 10:08:45;;;;;;;14.82;3.95;;;7.10;99.90;;;;;;5002057;28;20038;-71
2022/12/22 10:11:16;;;;;;;9.98;3.97;;;7.20;99.90;;;;;;5002981;28;20042;-72
2022/12/22 10:13:43;;;;;;;10.23;4.43;;;7.20;99.90;;;;;;5000511;28;20049;-70
2022/12/22 10:16:33;;;;;;;7.80;3.40;;;7.30;99.90;;;;;;5003536;28;20050;-70
2022/12/22 10:19:06;;;;;;;9.02;3.72;;;7.40;99.90;;;;;;5000885;28;20050;-70
2022/12/22 10:21:35;;;;;;;10.20;4.13;;;7.50;99.90;;;;;;5008340;28;20144;-70
2022/12/22 10:24:14;;;;;;;10.70;3.78;;;7.60;99.90;;;;;;5011366;28;20038;-69
2022/12/22 10:26:41;;;;;;;9.90;3.47;;;7.60;99.90;;;;;;5005443;28;20137;-69
2022/12/22 10:29:15;;;;;;;9.77;3.90;;;7.70;99.90;;;;;;5003812;28;20045;-69
2022/12/22 10:32:00;;;;;;;11.90;3.95;;;7.80;99.90;;;;;;5009796;28;20104;-69
2022/12/22 10:34:26;;;;;;;10.40;4.65;;;7.70;99.90;;;;;;5008835;28;20050;-69
2022/12/22 10:36:57;;;;;;;10.53;3.30;;;7.70;99.90;;;;;;5007339;28;20046;-70
2022/12/22 10:39:31;;;;;;;6.15;3.20;;;7.70;99.90;;;;;;5006430;28;20291;-70
2022/12/22 10:42:05;;;;;;;11.82;3.30;;;7.60;99.90;;;;;;5008945;28;20205;-69
2022/12/22 10:44:35;;;;;;;11.38;3.55;;;7.60;99.90;;;;;;5003044;28;20183;-69
2022/12/22 10:47:13;;;;;;;7.72;3.50;;;7.70;99.90;;;;;;5010296;28;20546;-69
2022/12/22 10:49:40;;;;;;;;;;;7.70;99.90;;;;;;5007799;28;20061;-69
2022/12/22 10:52:24;;;;;;;9.90;3.00;;;7.60;99.90;;;;;;5004235;28;20059;-70
2022/12/22 10:54:50;;;;;;;7.78;3.13;;;7.70;99.90;;;;;;5007404;28;20314;-70
2022/12/22 10:57:16;;;;;;;7.13;3.40;;;7.70;99.90;;;;;;5002742;28;20613;-71
2022/12/22 11:00:40;;;;;;;11.00;3.87;;;7.80;99.90;;;;;;5006953;28;20034;-71
2022/12/22 11:03:13;;;;;;;8.82;3.13;;;7.80;99.90;;;;;;4946711;28;20156;-66
2022/12/22 11:05:40;;;;;;;6.18;2.80;;;7.90;99.90;;;;;;5010177;28;20056;-67
2022/12/22 11:08:17;;;;;;;9.88;3.42;;;7.90;99.90;;;;;;5012316;28;20041;-67
2022/12/22 11:10:46;;;;;;;9.60;4.90;;;7.90;99.90;;;;;;5010015;28;20561;-67
2022/12/22 11:13:50;;;;;;;11.25;3.40;;;8.00;99.90;;;;;;5009387;28;20520;-69
2022/12/22 11:16:34;;;;;;;7.80;3.80;;;8.00;99.90;;;;;;5044932;22;20131;-69
2022/12/22 11:19:17;;;;;;;8.73;4.70;;;8.10;99.90;;;;;;5055417;28;20521;-69
2022/12/22 11:21:45;;;;;;;13.18;4.40;;;8.10;99.90;;;;;;5044978;28;20048;-69
2022/12/22 11:24:46;;;;;;;8.90;4.10;;;8.20;99.90;;;;;;5039086;28;20068;-69
2022/12/22 11:27:44;;;;;;;13.45;3.17;;;8.30;99.90;;;;;;5019276;28;20083;-69
2022/12/22 11:30:19;;;;;;;6.57;2.72;;;8.30;99.90;;;;;;4979134;28;20143;-70
2022/12/22 11:33:11;;;;;;;9.60;3.70;;;8.40;99.90;;;;;;5039997;28;20049;-69
2022/12/22 11:36:32;;;;;;;10.25;4.30;;;8.50;99.90;;;;;;5020563;28;20037;-69
2022/12/22 11:39:07;;;;;;;9.75;4.32;;;8.40;99.90;;;;;;5017396;28;20479;-69
2022/12/22 11:41:50;;;;;;;25.95;9.00;;;8.50;99.90;;;;;;5038185;28;20036;-69
2022/12/22 11:44:29;;;;;;;10.18;4.63;;;8.50;99.90;;;;;;5038462;28;20102;-69
2022/12/22 11:47:06;;;;;;;10.05;3.53;;;8.60;99.90;;;;;;5034924;28;20410;-69
2022/12/22 11:49:37;;;;;;;9.88;2.83;;;8.60;99.90;;;;;;5024929;28;20498;-69
2022/12/22 11:52:40;;;;;;;18.63;5.97;;;8.70;99.90;;;;;;5017330;28;20557;-69
2022/12/22 11:55:59;;;;;;;11.32;3.10;;;8.70;99.90;;;;;;5015767;28;20088;-69
2022/12/22 11:58:28;;;;;;;;;;;8.70;99.90;;;;;;5012459;28;20063;-69
2022/12/22 12:01:11;;;;;;;10.68;2.17;;;8.80;99.90;;;;;;5031230;28;20001;-69
2022/12/22 12:04:09;;;;;;;4.75;2.53;;;8.80;99.90;;;;;;5022805;28;20045;-69
2022/12/22 12:06:58;;;;;;;4.90;1.92;;;8.90;99.90;;;;;;5018838;28;20045;-69
2022/12/22 12:09:49;;;;;;;10.95;3.00;;;8.90;99.90;;;;;;5040251;28;20053;-69
2022/12/22 12:12:21;;;;;;;12.60;2.88;;;9.00;99.90;;;;;;5043268;28;20041;-69
2022/12/22 12:15:18;;;;;;;7.82;2.88;;;9.00;99.90;;;;;;5025654;28;20041;-69
2022/12/22 12:17:53;;;;;;;7.10;2.53;;;9.00;99.90;;;;;;5026465;28;20526;-69
2022/12/22 12:20:48;;;;;;;11.20;3.03;;;9.10;99.90;;;;;;5040728;28;20627;-69
2022/12/22 12:23:41;;;;;;;8.10;2.38;;;9.00;99.90;;;;;;5015601;28;20132;-69
2022/12/22 12:26:19;;;;;;;5.95;2.53;;;8.90;99.90;;;;;;5040912;28;20053;-70
2022/12/22 12:29:10;;;;;;;6.60;2.28;;;8.90;99.90;;;;;;5017566;28;20402;-70
2022/12/22 12:31:45;;;;;;;9.43;2.67;;;8.90;99.90;;;;;;5048585;28;20045;-70
2022/12/22 12:34:15;;;;;;;9.25;2.45;;;8.80;99.90;;;;;;5039096;28;20049;-68
2022/12/22 12:36:59;;;;;;;12.07;2.70;;;8.80;99.90;;;;;;5033627;28;20048;-69
2022/12/22 12:39:27;;;;;;;7.15;3.15;;;8.70;99.90;;;;;;5040921;28;20037;-69
2022/12/22 12:42:17;;;;;;;7.30;2.55;;;8.70;99.90;;;;;;5036580;28;20233;-69
2022/12/22 12:44:44;;;;;;;11.05;3.10;;;8.70;99.90;;;;;;5034850;28;20123;-69
2022/12/22 12:47:24;;;;;;;9.02;2.63;;;8.70;99.90;;;;;;5005930;28;20345;-69
2022/12/22 12:49:57;;;;;;;6.72;2.58;;;8.70;99.90;;;;;;5026891;28;20110;-69
2022/12/22 12:52:38;;;;;;;6.72;2.40;;;8.80;99.90;;;;;;5044903;28;20537;-69
2022/12/22 12:55:25;;;;;;;8.77;2.58;;;8.80;99.90;;;;;;5040766;28;20394;-70
2022/12/22 12:57:51;;;;;;;8.55;2.50;;;9.00;99.90;;;;;;5019114;28;20056;-70
2022/12/22 13:00:32;;;;;;;6.38;2.30;;;8.90;99.90;;;;;;5037122;28;20055;-69
2022/12/22 13:03:04;;;;;;;11.05;2.08;;;9.00;99.90;;;;;;5046211;28;20072;-69
2022/12/22 13:05:35;;;;;;;5.43;1.95;;;9.00;99.90;;;;;;5039575;28;20041;-69
2022/12/22 13:08:08;;;;;;;8.48;2.25;;;9.00;99.90;;;;;;5034862;28;20041;-69
2022/12/22 13:10:41;;;;;;;10.75;3.28;;;9.00;99.90;;;;;;5028870;28;20049;-69
2022/12/22 13:13:22;;;;;;;7.22;2.60;;;9.00;99.90;;;;;;5032854;28;20131;-69
2022/12/22 13:16:01;;;;;;;6.00;1.95;;;8.90;99.90;;;;;;5020395;28;20036;-69
2022/12/22 13:18:37;;;;;;;9.50;2.70;;;8.90;99.90;;;;;;5034413;28;20152;-69
2022/12/22 13:21:21;;;;;;;8.05;2.75;;;9.00;99.90;;;;;;5041694;28;20228;-71
2022/12/22 13:24:01;;;;;;;8.00;3.15;;;8.90;99.90;;;;;;5013091;28;20113;-68
2022/12/22 13:26:30;;;;;;;6.95;2.53;;;9.00;99.90;;;;;;5014478;28;20092;-69
2022/12/22 13:28:58;;;;;;;7.60;2.28;;;8.90;99.90;;;;;;5017843;28;20460;-71
2022/12/22 13:31:28;;;;;;;7.47;2.13;;;8.90;99.90;;;;;;5038035;28;20433;-69
2022/12/22 13:34:09;;;;;;;8.00;2.47;;;8.90;99.90;;;;;;5037668;28;20516;-69
2022/12/22 13:36:36;;;;;;;7.20;2.33;;;8.90;99.90;;;;;;5012966;28;20099;-69
2022/12/22 13:39:04;;;;;;;8.70;2.00;;;9.00;99.90;;;;;;5033294;28;20045;-69
2022/12/22 13:41:32;;;;;;;7.82;2.72;;;9.00;99.90;;;;;;5036004;28;20432;-69
2022/12/22 13:44:04;;;;;;;9.05;2.50;;;8.90;99.90;;;;;;5022741;28;20131;-69
2022/12/22 13:46:33;;;;;;;9.93;2.30;;;9.00;99.90;;;;;;5018843;28;20286;-69
2022/12/22 13:49:01;;;;;;;5.50;2.60;;;8.90;99.90;;;;;;5034136;28;20120;-69
2022/12/22 13:51:34;;;;;;;8.73;2.35;;;9.00;99.90;;;;;;5031782;28;20045;-69
2022/12/22 13:54:07;;;;;;;6.78;1.75;;;8.90;99.90;;;;;;5028758;28;20033;-69
2022/12/22 13:56:49;;;;;;;10.02;2.10;;;9.00;99.90;;;;;;5015866;28;20437;-69
2022/12/22 13:59:34;;;;;;;13.52;2.55;;;8.90;99.90;;;;;;5041544;28;20389;-69
2022/12/22 14:02:01;;;;;;;7.20;1.65;;;9.00;99.90;;;;;;5027371;28;20033;-69
2022/12/22 14:04:27;;;;;;;;;;;9.00;99.90;;;;;;5039480;28;20048;-69
2022/12/22 14:06:53;;;;;;;7.03;1.77;;;9.00;99.90;;;;;;5035393;28;19952;-69
2022/12/22 14:09:22;;;;;;;10.35;1.48;;;9.00;99.90;;;;;;5033703;28;20056;-69
2022/12/22 14:11:54;;;;;;;5.22;1.20;;;9.00;99.90;;;;;;5037939;28;20045;-69
2022/12/22 14:14:35;;;;;;;6.22;1.20;;;9.00;99.90;;;;;;5040174;28;20170;-69
2022/12/22 14:17:01;;;;;;;5.18;1.48;;;9.10;99.90;;;;;;5035684;28;20502;-69
2022/12/22 14:19:33;;;;;;;7.22;1.88;;;9.10;99.90;;;;;;5033527;28;20215;-69
2022/12/22 14:22:04;;;;;;;8.25;1.35;;;9.10;99.90;;;;;;5037459;28;20495;-69
2022/12/22 14:24:34;;;;;;;6.05;1.50;;;9.10;99.90;;;;;;5044053;28;20406;-69
2022/12/22 14:27:01;;;;;;;9.88;1.38;;;9.10;99.90;;;;;;5042387;28;20041;-69
2022/12/22 14:29:28;;;;;;;3.58;1.08;;;9.00;99.90;;;;;;5018524;28;20044;-69
2022/12/22 14:31:59;;;;;;;3.50;1.00;;;9.00;99.90;;;;;;5016270;28;20061;-69
2022/12/22 14:34:30;;;;;;;4.43;1.77;;;9.00;99.90;;;;;;5011575;28;20037;-69
2022/12/22 14:36:56;;;;;;;4.53;0.80;;;8.90;99.90;;;;;;5024690;28;20044;-69
2022/12/22 14:39:29;;;;;;;6.55;1.00;;;8.90;99.90;;;;;;5017014;28;20048;-69
2022/12/22 14:41:58;;;;;;;6.32;1.05;;;8.90;99.90;;;;;;5033703;28;20076;-70
2022/12/22 14:44:27;;;;;;;6.13;1.23;;;8.80;99.90;;;;;;5044991;28;20127;-69
2022/12/22 14:47:05;;;;;;;3.72;1.15;;;8.70;99.90;;;;;;5032013;28;20041;-69
2022/12/22 14:49:31;;;;;;;6.78;1.55;;;8.80;99.90;;;;;;5044285;28;20041;-69
2022/12/22 14:52:05;;;;;;;2.50;0.98;;;8.70;99.90;;;;;;5027734;28;20041;-69
2022/12/22 14:54:31;;;;;;;3.80;1.55;;;8.80;99.90;;;;;;5040516;28;20135;-69
2022/12/22 14:57:12;;;;;;;4.13;1.53;;;8.70;99.90;;;;;;5039362;28;20200;-69
2022/12/22 14:59:38;;;;;;;3.50;1.33;;;8.70;99.90;;;;;;5039025;28;20449;-69
2022/12/22 15:02:34;;;;;;;10.13;2.20;;;8.60;99.90;;;;;;5044004;28;20037;-69
2022/12/22 15:05:15;;;;;;;8.70;2.28;;;8.60;99.90;;;;;;5031017;28;20086;-69
2022/12/22 15:07:49;;;;;;;7.90;2.20;;;8.50;99.90;;;;;;5025581;28;20053;-69
2022/12/22 15:10:15;;;;;;;7.53;2.60;;;8.40;99.90;;;;;;5049727;28;20092;-69
2022/12/22 15:12:42;;;;;;;6.55;2.20;;;8.40;99.90;;;;;;5017240;28;20107;-69
2022/12/22 15:15:19;;;;;;;8.98;2.45;;;8.40;99.90;;;;;;5023534;28;20407;-69
2022/12/22 15:17:50;;;;;;;4.07;2.03;;;8.40;99.90;;;;;;5046190;28;20041;-69
2022/12/22 15:20:25;;;;;;;7.43;2.38;;;8.20;99.90;;;;;;5021596;28;20360;-69
2022/12/22 15:22:51;;;;;;;9.65;2.33;;;8.20;99.90;;;;;;5039162;28;20037;-69
2022/12/22 15:25:20;;;;;;;11.40;3.42;;;8.10;99.90;;;;;;5044018;28;20045;-69
2022/12/22 15:27:46;;;;;;;5.65;2.40;;;8.10;99.90;;;;;;5016547;28;20053;-69
2022/12/22 15:30:16;;;;;;;5.80;2.88;;;8.00;99.90;;;;;;5043779;28;20045;-69
2022/12/22 15:32:42;;;;;;;8.10;3.10;;;8.00;99.90;;;;;;5021395;28;20173;-70
2022/12/22 15:35:19;;;;;;;;;;;8.00;99.90;;;;;;5034724;28;20041;-69
2022/12/22 15:37:45;;;;;;;6.68;3.65;;;8.00;99.90;;;;;;5040940;28;19921;-69
2022/12/22 15:40:14;;;;;;;8.95;4.03;;;7.90;99.90;;;;;;5029396;28;20109;-69
2022/12/22 15:42:40;;;;;;;7.53;4.22;;;7.90;99.90;;;;;;5044412;28;20087;-69
2022/12/22 15:45:06;;;;;;;8.33;4.30;;;7.90;99.90;;;;;;5046699;28;20041;-69
2022/12/22 15:47:31;;;;;;;13.52;4.45;;;7.80;99.90;;;;;;5040957;28;20060;-70
2022/12/22 15:49:58;;;;;;;12.60;4.73;;;7.80;99.90;;;;;;5043615;28;20037;-69
2022/12/22 15:52:24;;;;;;;13.05;4.80;;;7.80;99.90;;;;;;5042586;28;20040;-69
2022/12/22 15:54:50;;;;;;;11.80;5.03;;;7.70;99.90;;;;;;5017738;28;20116;-70
2022/12/22 15:57:16;;;;;;;11.65;5.28;;;7.70;99.90;;;;;;5038858;28;20095;-69
2022/12/22 15:59:41;;;;;;;9.13;5.50;;;7.70;99.90;;;;;;5038493;28;20488;-69
2022/12/22 16:02:11;;;;;;;13.10;5.80;;;7.70;99.90;;;;;;5043843;28;20096;-69
2022/12/22 16:04:37;;;;;;;11.70;4.60;;;7.60;99.90;;;;;;5015400;28;20041;-69
2022/12/22 16:07:02;;;;;;;11.57;5.33;;;7.60;99.90;;;;;;5035810;28;20059;-70
2022/12/22 16:09:36;;;;;;;13.53;4.87;;;7.60;99.90;;;;;;5042333;28;20041;-69
2022/12/22 16:12:13;;;;;;;11.32;4.63;;;7.60;99.90;;;;;;5032828;28;20046;-69
2022/12/22 16:14:40;;;;;;;9.85;4.65;;;7.60;99.90;;;;;;5029043;28;20126;-69
2022/12/22 16:17:17;;;;;;;7.95;4.35;;;7.60;99.90;;;;;;5038811;28;20060;-69
2022/12/22 16:19:44;;;;;;;8.27;4.53;;;7.60;99.90;;;;;;5032683;28;20487;-69
2022/12/22 16:22:14;;;;;;;8.38;5.22;;;7.50;99.90;;;;;;5015892;28;20488;-69
2022/12/22 16:24:43;;;;;;;8.27;4.30;;;7.60;99.90;;;;;;5028660;28;20506;-69
2022/12/22 16:27:11;;;;;;;22.02;6.18;;;7.50;99.90;;;;;;5045327;28;20399;-69
2022/12/22 16:29:38;;;;;;;11.00;5.82;;;7.50;99.90;;;;;;5042038;28;20115;-69
2022/12/22 16:32:16;;;;;;;14.18;6.85;;;7.50;99.90;;;;;;5027840;28;20490;-69
2022/12/22 16:34:42;;;;;;;12.95;7.20;;;7.50;99.90;;;;;;5024580;28;20041;-69
2022/12/22 16:37:08;;;;;;;15.07;6.82;;;7.50;99.90;;;;;;5042595;28;20212;-69
2022/12/22 16:39:33;;;;;;;16.73;7.87;;;7.50;99.90;;;;;;5034368;28;20041;-70
2022/12/22 16:41:59;;;;;;;19.73;7.77;;;7.50;99.90;;;;;;5045086;28;20041;-70
2022/12/22 16:44:25;;;;;;;18.13;8.35;;;7.40;99.90;;;;;;5039258;28;20049;-70
2022/12/22 16:46:51;;;;;;;18.27;7.85;;;7.50;99.90;;;;;;5040861;28;20050;-70
2022/12/22 16:49:19;;;;;;;15.23;8.32;;;7.40;99.90;;;;;;5022886;28;20072;-70
2022/12/22 16:51:53;;;;;;;16.38;8.40;;;7.50;99.90;;;;;;5020491;28;20049;-69
2022/12/22 16:54:19;;;;;;;17.88;8.75;;;7.40;99.90;;;;;;5020944;28;20049;-70
2022/12/22 16:56:45;;;;;;;23.92;9.95;;;7.40;99.90;;;;;;5018170;28;20063;-70